sensor_id;sensor_type;location;lat;lon;timestamp;P1;durP1;ratioP1;P2;durP2;ratioP2
69083;SDS011;56185;48.526;9.044;2023-03-01T00:00:36;16.13;;;9.65;;
69083;SDS011;56185;48.526;9.044;2023-03-01T00:03:01;15.98;;;9.30;;
69083;SDS011;56185;48.526;9.044;2023-03-01T00:05:26;16.45;;;9.65;;
69083;SDS011;56185;48.526;9.044;2023-03-01T00:07:52;14.75;;;9.27;;
69083;SDS011;56185;48.526;9.044;2023-03-01T00:10:18;16.92;;;10.25;;
69083;SDS011;56185;48.526;9.044;2023-03-01T00:12:43;18.88;;;9.57;;
69083;SDS011;56185;48.526;9.044;2023-03-01T00:15:08;16.73;;;10.33;;
69083;SDS011;56185;48.526;9.044;2023-03-01T00:17:34;17.23;;;9.82;;
69083;SDS011;56185;48.526;9.044;2023-03-01T00:19:59;16.45;;;9.70;;
69083;SDS011;56185;48.526;9.044;2023-03-01T00:22:26;16.52;;;9.23;;
69083;SDS011;56185;48.526;9.044;2023-03-01T00:24:51;15.63;;;9.35;;
69083;SDS011;56185;48.526;9.044;2023-03-01T00:27:17;15.93;;;9.27;;
69083;SDS011;56185;48.526;9.044;2023-03-01T00:29:42;18.10;;;10.35;;
69083;SDS011;56185;48.526;9.044;2023-03-01T00:32:07;16.80;;;9.90;;
69083;SDS011;56185;48.526;9.044;2023-03-01T00:34:32;16.10;;;9.55;;
69083;SDS011;56185;48.526;9.044;2023-03-01T00:36:57;15.93;;;9.15;;
69083;SDS011;56185;48.526;9.044;2023-03-01T00:39:23;16.70;;;9.40;;
69083;SDS011;56185;48.526;9.044;2023-03-01T00:41:48;18.30;;;10.10;;
69083;SDS011;56185;48.526;9.044;2023-03-01T00:44:13;17.70;;;10.48;;
69083;SDS011;56185;48.526;9.044;2023-03-01T00:46:38;19.10;;;9.77;;
69083;SDS011;56185;48.526;9.044;2023-03-01T00:49:04;15.82;;;9.60;;
69083;SDS011;56185;48.526;9.044;2023-03-01T00:51:29;15.63;;;9.60;;
69083;SDS011;56185;48.526;9.044;2023-03-01T00:53:55;15.00;;;9.60;;
69083;SDS011;56185;48.526;9.044;2023-03-01T00:56:22;17.15;;;10.07;;
69083;SDS011;56185;48.526;9.044;2023-03-01T00:58:47;19.92;;;10.15;;
69083;SDS011;56185;48.526;9.044;2023-03-01T01:01:14;16.95;;;10.18;;
69083;SDS011;56185;48.526;9.044;2023-03-01T01:03:40;17.38;;;9.77;;
69083;SDS011;56185;48.526;9.044;2023-03-01T01:06:06;16.55;;;9.75;;
69083;SDS011;56185;48.526;9.044;2023-03-01T01:08:38;14.38;;;9.30;;
69083;SDS011;56185;48.526;9.044;2023-03-01T01:11:03;19.40;;;10.60;;
69083;SDS011;56185;48.526;9.044;2023-03-01T01:13:28;16.83;;;9.82;;
69083;SDS011;56185;48.526;9.044;2023-03-01T01:15:54;16.02;;;10.02;;
69083;SDS011;56185;48.526;9.044;2023-03-01T01:18:19;17.15;;;10.18;;
69083;SDS011;56185;48.526;9.044;2023-03-01T01:20:44;17.30;;;9.52;;
69083;SDS011;56185;48.526;9.044;2023-03-01T01:23:09;16.73;;;10.27;;
69083;SDS011;56185;48.526;9.044;2023-03-01T01:25:35;17.35;;;10.70;;
69083;SDS011;56185;48.526;9.044;2023-03-01T01:28:00;15.55;;;9.52;;
69083;SDS011;56185;48.526;9.044;2023-03-01T01:30:26;17.38;;;9.95;;
69083;SDS011;56185;48.526;9.044;2023-03-01T01:32:51;18.27;;;10.48;;
69083;SDS011;56185;48.526;9.044;2023-03-01T01:35:16;18.13;;;10.02;;
69083;SDS011;56185;48.526;9.044;2023-03-01T01:37:41;17.35;;;10.63;;
69083;SDS011;56185;48.526;9.044;2023-03-01T01:40:08;15.82;;;10.20;;
69083;SDS011;56185;48.526;9.044;2023-03-01T01:42:34;19.15;;;10.27;;
69083;SDS011;56185;48.526;9.044;2023-03-01T01:45:23;16.00;;;9.97;;
69083;SDS011;56185;48.526;9.044;2023-03-01T01:48:04;15.88;;;9.25;;
69083;SDS011;56185;48.526;9.044;2023-03-01T01:50:35;17.13;;;9.77;;
69083;SDS011;56185;48.526;9.044;2023-03-01T01:53:10;18.67;;;11.10;;
69083;SDS011;56185;48.526;9.044;2023-03-01T01:55:42;19.70;;;10.68;;
69083;SDS011;56185;48.526;9.044;2023-03-01T01:58:11;18.52;;;10.57;;
69083;SDS011;56185;48.526;9.044;2023-03-01T02:00:40;18.70;;;10.13;;
69083;SDS011;56185;48.526;9.044;2023-03-01T02:03:16;15.52;;;9.82;;
69083;SDS011;56185;48.526;9.044;2023-03-01T02:08:17;18.67;;;10.57;;
69083;SDS011;56185;48.526;9.044;2023-03-01T02:10:43;19.20;;;10.95;;
69083;SDS011;56185;48.526;9.044;2023-03-01T02:13:10;24.15;;;10.48;;
69083;SDS011;56185;48.526;9.044;2023-03-01T02:15:37;18.95;;;10.98;;
69083;SDS011;56185;48.526;9.044;2023-03-01T02:18:04;19.65;;;10.65;;
69083;SDS011;56185;48.526;9.044;2023-03-01T02:20:43;19.67;;;11.50;;
69083;SDS011;56185;48.526;9.044;2023-03-01T02:23:15;19.75;;;11.00;;
69083;SDS011;56185;48.526;9.044;2023-03-01T02:25:55;20.35;;;10.70;;
69083;SDS011;56185;48.526;9.044;2023-03-01T02:30:54;19.73;;;10.65;;
69083;SDS011;56185;48.526;9.044;2023-03-01T02:33:20;20.70;;;11.00;;
69083;SDS011;56185;48.526;9.044;2023-03-01T02:35:45;17.70;;;10.60;;
69083;SDS011;56185;48.526;9.044;2023-03-01T02:38:10;18.45;;;10.52;;
69083;SDS011;56185;48.526;9.044;2023-03-01T02:40:36;20.38;;;11.05;;
69083;SDS011;56185;48.526;9.044;2023-03-01T02:43:02;17.83;;;10.43;;
69083;SDS011;56185;48.526;9.044;2023-03-01T02:45:31;21.98;;;11.13;;
69083;SDS011;56185;48.526;9.044;2023-03-01T02:47:56;20.77;;;10.45;;
69083;SDS011;56185;48.526;9.044;2023-03-01T02:55:58;19.83;;;10.60;;
69083;SDS011;56185;48.526;9.044;2023-03-01T02:58:23;18.88;;;10.90;;
69083;SDS011;56185;48.526;9.044;2023-03-01T03:00:49;17.05;;;10.68;;
69083;SDS011;56185;48.526;9.044;2023-03-01T03:03:15;18.42;;;10.70;;
69083;SDS011;56185;48.526;9.044;2023-03-01T03:05:42;16.90;;;10.43;;
69083;SDS011;56185;48.526;9.044;2023-03-01T03:08:07;16.15;;;10.40;;
69083;SDS011;56185;48.526;9.044;2023-03-01T03:10:34;20.23;;;11.38;;
69083;SDS011;56185;48.526;9.044;2023-03-01T03:13:06;18.48;;;10.82;;
69083;SDS011;56185;48.526;9.044;2023-03-01T03:15:33;17.48;;;10.48;;
69083;SDS011;56185;48.526;9.044;2023-03-01T03:17:59;22.05;;;10.90;;
69083;SDS011;56185;48.526;9.044;2023-03-01T03:20:25;18.15;;;10.82;;
69083;SDS011;56185;48.526;9.044;2023-03-01T03:22:53;21.10;;;11.80;;
69083;SDS011;56185;48.526;9.044;2023-03-01T03:25:20;18.90;;;11.57;;
69083;SDS011;56185;48.526;9.044;2023-03-01T03:27:47;18.80;;;11.57;;
69083;SDS011;56185;48.526;9.044;2023-03-01T03:30:17;17.33;;;10.43;;
69083;SDS011;56185;48.526;9.044;2023-03-01T03:32:44;18.58;;;10.57;;
69083;SDS011;56185;48.526;9.044;2023-03-01T03:35:11;20.77;;;10.70;;
69083;SDS011;56185;48.526;9.044;2023-03-01T03:37:40;22.42;;;12.20;;
69083;SDS011;56185;48.526;9.044;2023-03-01T03:40:05;19.17;;;10.82;;
69083;SDS011;56185;48.526;9.044;2023-03-01T03:42:31;19.05;;;11.80;;
69083;SDS011;56185;48.526;9.044;2023-03-01T03:44:56;17.10;;;10.50;;
69083;SDS011;56185;48.526;9.044;2023-03-01T03:47:21;19.13;;;10.83;;
69083;SDS011;56185;48.526;9.044;2023-03-01T03:49:46;19.10;;;11.23;;
69083;SDS011;56185;48.526;9.044;2023-03-01T03:52:14;20.10;;;11.38;;
69083;SDS011;56185;48.526;9.044;2023-03-01T03:54:40;19.67;;;11.13;;
69083;SDS011;56185;48.526;9.044;2023-03-01T03:57:05;22.10;;;11.60;;
69083;SDS011;56185;48.526;9.044;2023-03-01T03:59:31;21.08;;;10.65;;
69083;SDS011;56185;48.526;9.044;2023-03-01T04:01:56;20.38;;;11.48;;
69083;SDS011;56185;48.526;9.044;2023-03-01T04:04:22;20.13;;;11.13;;
69083;SDS011;56185;48.526;9.044;2023-03-01T04:06:47;20.10;;;11.15;;
69083;SDS011;56185;48.526;9.044;2023-03-01T04:09:12;17.98;;;10.70;;
69083;SDS011;56185;48.526;9.044;2023-03-01T04:11:37;19.63;;;10.73;;
69083;SDS011;56185;48.526;9.044;2023-03-01T04:14:03;19.80;;;11.77;;
69083;SDS011;56185;48.526;9.044;2023-03-01T04:16:28;19.60;;;11.23;;
69083;SDS011;56185;48.526;9.044;2023-03-01T04:18:53;21.27;;;11.43;;
69083;SDS011;56185;48.526;9.044;2023-03-01T04:21:18;19.25;;;10.90;;
69083;SDS011;56185;48.526;9.044;2023-03-01T04:23:44;17.90;;;11.43;;
69083;SDS011;56185;48.526;9.044;2023-03-01T04:26:09;20.35;;;11.32;;
69083;SDS011;56185;48.526;9.044;2023-03-01T04:28:38;19.98;;;11.45;;
69083;SDS011;56185;48.526;9.044;2023-03-01T04:31:12;17.75;;;11.25;;
69083;SDS011;56185;48.526;9.044;2023-03-01T04:33:39;20.35;;;11.60;;
69083;SDS011;56185;48.526;9.044;2023-03-01T04:36:06;17.95;;;10.82;;
69083;SDS011;56185;48.526;9.044;2023-03-01T04:38:32;20.85;;;12.15;;
69083;SDS011;56185;48.526;9.044;2023-03-01T04:40:57;20.42;;;11.43;;
69083;SDS011;56185;48.526;9.044;2023-03-01T04:43:23;20.27;;;11.35;;
69083;SDS011;56185;48.526;9.044;2023-03-01T04:45:48;23.70;;;12.13;;
69083;SDS011;56185;48.526;9.044;2023-03-01T04:48:13;21.60;;;11.75;;
69083;SDS011;56185;48.526;9.044;2023-03-01T04:50:38;21.58;;;11.93;;
69083;SDS011;56185;48.526;9.044;2023-03-01T04:53:03;20.53;;;12.13;;
69083;SDS011;56185;48.526;9.044;2023-03-01T04:55:29;20.98;;;12.98;;
69083;SDS011;56185;48.526;9.044;2023-03-01T04:57:54;23.92;;;12.60;;
69083;SDS011;56185;48.526;9.044;2023-03-01T05:00:20;20.95;;;11.90;;
69083;SDS011;56185;48.526;9.044;2023-03-01T05:02:51;21.83;;;12.07;;
69083;SDS011;56185;48.526;9.044;2023-03-01T05:05:39;23.50;;;12.43;;
69083;SDS011;56185;48.526;9.044;2023-03-01T05:08:05;18.35;;;11.27;;
69083;SDS011;56185;48.526;9.044;2023-03-01T05:10:33;19.42;;;11.18;;
69083;SDS011;56185;48.526;9.044;2023-03-01T05:12:59;23.83;;;11.90;;
69083;SDS011;56185;48.526;9.044;2023-03-01T05:15:25;22.50;;;12.38;;
69083;SDS011;56185;48.526;9.044;2023-03-01T05:17:52;20.63;;;11.10;;
69083;SDS011;56185;48.526;9.044;2023-03-01T05:20:18;20.23;;;11.20;;
69083;SDS011;56185;48.526;9.044;2023-03-01T05:22:43;21.08;;;11.98;;
69083;SDS011;56185;48.526;9.044;2023-03-01T05:25:09;22.73;;;11.70;;
69083;SDS011;56185;48.526;9.044;2023-03-01T05:27:34;21.25;;;12.13;;
69083;SDS011;56185;48.526;9.044;2023-03-01T05:30:00;22.30;;;12.10;;
69083;SDS011;56185;48.526;9.044;2023-03-01T05:32:26;25.83;;;12.27;;
69083;SDS011;56185;48.526;9.044;2023-03-01T05:34:51;20.83;;;11.27;;
69083;SDS011;56185;48.526;9.044;2023-03-01T05:37:17;21.63;;;11.95;;
69083;SDS011;56185;48.526;9.044;2023-03-01T05:39:42;23.17;;;12.80;;
69083;SDS011;56185;48.526;9.044;2023-03-01T05:42:11;23.87;;;12.73;;
69083;SDS011;56185;48.526;9.044;2023-03-01T05:44:36;22.13;;;12.40;;
69083;SDS011;56185;48.526;9.044;2023-03-01T05:47:01;22.95;;;11.43;;
69083;SDS011;56185;48.526;9.044;2023-03-01T05:49:27;17.95;;;11.07;;
69083;SDS011;56185;48.526;9.044;2023-03-01T05:51:52;21.23;;;11.68;;
69083;SDS011;56185;48.526;9.044;2023-03-01T05:54:18;22.70;;;12.30;;
69083;SDS011;56185;48.526;9.044;2023-03-01T05:56:44;25.90;;;12.52;;
69083;SDS011;56185;48.526;9.044;2023-03-01T05:59:09;24.90;;;13.48;;
69083;SDS011;56185;48.526;9.044;2023-03-01T06:01:35;20.60;;;12.20;;
69083;SDS011;56185;48.526;9.044;2023-03-01T06:04:01;23.00;;;12.38;;
69083;SDS011;56185;48.526;9.044;2023-03-01T06:06:27;21.80;;;13.70;;
69083;SDS011;56185;48.526;9.044;2023-03-01T06:08:53;23.92;;;13.32;;
69083;SDS011;56185;48.526;9.044;2023-03-01T06:11:19;26.85;;;12.57;;
69083;SDS011;56185;48.526;9.044;2023-03-01T06:13:45;25.08;;;13.38;;
69083;SDS011;56185;48.526;9.044;2023-03-01T06:16:11;23.77;;;13.23;;
69083;SDS011;56185;48.526;9.044;2023-03-01T06:18:38;22.52;;;13.07;;
69083;SDS011;56185;48.526;9.044;2023-03-01T06:21:03;22.85;;;12.10;;
69083;SDS011;56185;48.526;9.044;2023-03-01T06:23:30;28.65;;;12.80;;
69083;SDS011;56185;48.526;9.044;2023-03-01T06:25:55;18.70;;;11.95;;
69083;SDS011;56185;48.526;9.044;2023-03-01T06:28:20;21.77;;;12.52;;
69083;SDS011;56185;48.526;9.044;2023-03-01T06:30:46;20.70;;;12.13;;
69083;SDS011;56185;48.526;9.044;2023-03-01T06:33:12;22.10;;;12.45;;
69083;SDS011;56185;48.526;9.044;2023-03-01T06:35:37;22.52;;;13.27;;
69083;SDS011;56185;48.526;9.044;2023-03-01T06:38:03;21.65;;;12.93;;
69083;SDS011;56185;48.526;9.044;2023-03-01T06:40:29;21.38;;;12.35;;
69083;SDS011;56185;48.526;9.044;2023-03-01T06:42:55;23.63;;;12.85;;
69083;SDS011;56185;48.526;9.044;2023-03-01T06:45:20;20.60;;;12.50;;
69083;SDS011;56185;48.526;9.044;2023-03-01T06:47:46;21.65;;;12.45;;
69083;SDS011;56185;48.526;9.044;2023-03-01T06:50:12;23.25;;;12.57;;
69083;SDS011;56185;48.526;9.044;2023-03-01T06:52:37;23.42;;;12.63;;
69083;SDS011;56185;48.526;9.044;2023-03-01T06:55:03;21.95;;;12.65;;
69083;SDS011;56185;48.526;9.044;2023-03-01T06:57:29;23.17;;;12.98;;
69083;SDS011;56185;48.526;9.044;2023-03-01T06:59:54;21.17;;;13.02;;
69083;SDS011;56185;48.526;9.044;2023-03-01T07:02:19;22.40;;;13.10;;
69083;SDS011;56185;48.526;9.044;2023-03-01T07:04:45;22.42;;;12.95;;
69083;SDS011;56185;48.526;9.044;2023-03-01T07:07:10;22.95;;;13.10;;
69083;SDS011;56185;48.526;9.044;2023-03-01T07:09:35;24.13;;;12.93;;
69083;SDS011;56185;48.526;9.044;2023-03-01T07:12:01;26.05;;;12.48;;
69083;SDS011;56185;48.526;9.044;2023-03-01T07:14:26;23.10;;;12.75;;
69083;SDS011;56185;48.526;9.044;2023-03-01T07:16:52;20.13;;;11.75;;
69083;SDS011;56185;48.526;9.044;2023-03-01T07:19:18;23.40;;;13.00;;
69083;SDS011;56185;48.526;9.044;2023-03-01T07:21:43;21.30;;;12.35;;
69083;SDS011;56185;48.526;9.044;2023-03-01T07:24:08;20.45;;;12.88;;
69083;SDS011;56185;48.526;9.044;2023-03-01T07:26:34;22.95;;;12.63;;
69083;SDS011;56185;48.526;9.044;2023-03-01T07:29:00;24.10;;;12.80;;
69083;SDS011;56185;48.526;9.044;2023-03-01T07:31:25;25.80;;;12.57;;
69083;SDS011;56185;48.526;9.044;2023-03-01T07:33:51;23.92;;;13.23;;
69083;SDS011;56185;48.526;9.044;2023-03-01T07:36:16;21.50;;;12.63;;
69083;SDS011;56185;48.526;9.044;2023-03-01T07:38:41;23.73;;;12.80;;
69083;SDS011;56185;48.526;9.044;2023-03-01T07:41:07;29.35;;;13.07;;
69083;SDS011;56185;48.526;9.044;2023-03-01T07:43:32;22.10;;;13.27;;
69083;SDS011;56185;48.526;9.044;2023-03-01T07:45:58;24.25;;;13.30;;
69083;SDS011;56185;48.526;9.044;2023-03-01T07:48:27;23.48;;;12.63;;
69083;SDS011;56185;48.526;9.044;2023-03-01T07:50:53;29.40;;;13.82;;
69083;SDS011;56185;48.526;9.044;2023-03-01T07:53:19;22.95;;;12.25;;
69083;SDS011;56185;48.526;9.044;2023-03-01T07:55:44;25.90;;;12.95;;
69083;SDS011;56185;48.526;9.044;2023-03-01T07:58:09;23.48;;;13.02;;
69083;SDS011;56185;48.526;9.044;2023-03-01T08:00:34;22.08;;;12.35;;
69083;SDS011;56185;48.526;9.044;2023-03-01T08:03:00;23.33;;;12.63;;
69083;SDS011;56185;48.526;9.044;2023-03-01T08:05:26;22.42;;;12.95;;
69083;SDS011;56185;48.526;9.044;2023-03-01T08:07:51;23.50;;;13.48;;
69083;SDS011;56185;48.526;9.044;2023-03-01T08:10:17;21.77;;;12.52;;
69083;SDS011;56185;48.526;9.044;2023-03-01T08:12:42;22.60;;;12.93;;
69083;SDS011;56185;48.526;9.044;2023-03-01T08:15:07;22.02;;;13.43;;
69083;SDS011;56185;48.526;9.044;2023-03-01T08:17:34;22.92;;;12.38;;
69083;SDS011;56185;48.526;9.044;2023-03-01T08:19:59;21.92;;;12.18;;
69083;SDS011;56185;48.526;9.044;2023-03-01T08:22:24;27.73;;;13.73;;
69083;SDS011;56185;48.526;9.044;2023-03-01T08:24:49;21.63;;;12.45;;
69083;SDS011;56185;48.526;9.044;2023-03-01T08:27:16;21.33;;;12.65;;
69083;SDS011;56185;48.526;9.044;2023-03-01T08:29:41;21.13;;;12.82;;
69083;SDS011;56185;48.526;9.044;2023-03-01T08:32:07;25.65;;;13.50;;
69083;SDS011;56185;48.526;9.044;2023-03-01T08:34:32;23.88;;;12.80;;
69083;SDS011;56185;48.526;9.044;2023-03-01T08:36:57;22.98;;;13.13;;
69083;SDS011;56185;48.526;9.044;2023-03-01T08:39:23;22.35;;;12.60;;
69083;SDS011;56185;48.526;9.044;2023-03-01T08:41:48;22.95;;;13.40;;
69083;SDS011;56185;48.526;9.044;2023-03-01T08:44:14;23.38;;;13.30;;
69083;SDS011;56185;48.526;9.044;2023-03-01T08:46:40;22.95;;;13.65;;
69083;SDS011;56185;48.526;9.044;2023-03-01T08:49:11;24.13;;;13.73;;
69083;SDS011;56185;48.526;9.044;2023-03-01T08:51:39;22.92;;;13.48;;
69083;SDS011;56185;48.526;9.044;2023-03-01T08:54:09;25.35;;;14.25;;
69083;SDS011;56185;48.526;9.044;2023-03-01T08:56:40;22.55;;;13.75;;
69083;SDS011;56185;48.526;9.044;2023-03-01T08:59:06;23.48;;;13.32;;
69083;SDS011;56185;48.526;9.044;2023-03-01T09:01:32;22.35;;;13.77;;
69083;SDS011;56185;48.526;9.044;2023-03-01T09:03:57;23.00;;;13.02;;
69083;SDS011;56185;48.526;9.044;2023-03-01T09:06:22;23.45;;;13.57;;
69083;SDS011;56185;48.526;9.044;2023-03-01T09:08:48;22.23;;;13.18;;
69083;SDS011;56185;48.526;9.044;2023-03-01T09:11:15;22.70;;;13.32;;
69083;SDS011;56185;48.526;9.044;2023-03-01T09:13:43;21.65;;;13.52;;
69083;SDS011;56185;48.526;9.044;2023-03-01T09:16:10;26.20;;;13.55;;
69083;SDS011;56185;48.526;9.044;2023-03-01T09:18:36;23.42;;;14.20;;
69083;SDS011;56185;48.526;9.044;2023-03-01T09:21:05;23.85;;;14.05;;
69083;SDS011;56185;48.526;9.044;2023-03-01T09:23:31;23.50;;;12.45;;
69083;SDS011;56185;48.526;9.044;2023-03-01T09:25:57;21.58;;;13.55;;
69083;SDS011;56185;48.526;9.044;2023-03-01T09:28:22;23.63;;;13.43;;
69083;SDS011;56185;48.526;9.044;2023-03-01T09:30:47;23.23;;;13.38;;
69083;SDS011;56185;48.526;9.044;2023-03-01T09:33:13;22.75;;;12.77;;
69083;SDS011;56185;48.526;9.044;2023-03-01T09:35:38;23.37;;;14.00;;
69083;SDS011;56185;48.526;9.044;2023-03-01T09:38:03;25.35;;;14.15;;
69083;SDS011;56185;48.526;9.044;2023-03-01T09:40:28;23.50;;;13.27;;
69083;SDS011;56185;48.526;9.044;2023-03-01T09:45:54;24.30;;;13.15;;
69083;SDS011;56185;48.526;9.044;2023-03-01T09:48:24;19.92;;;12.73;;
69083;SDS011;56185;48.526;9.044;2023-03-01T09:50:52;22.52;;;13.10;;
69083;SDS011;56185;48.526;9.044;2023-03-01T09:53:19;22.67;;;13.70;;
69083;SDS011;56185;48.526;9.044;2023-03-01T09:55:59;20.67;;;12.98;;
69083;SDS011;56185;48.526;9.044;2023-03-01T10:01:41;22.27;;;12.93;;
69083;SDS011;56185;48.526;9.044;2023-03-01T10:07:20;23.45;;;13.38;;
69083;SDS011;56185;48.526;9.044;2023-03-01T10:09:52;24.38;;;13.90;;
69083;SDS011;56185;48.526;9.044;2023-03-01T10:12:18;21.17;;;12.77;;
69083;SDS011;56185;48.526;9.044;2023-03-01T10:15:02;21.67;;;12.98;;
69083;SDS011;56185;48.526;9.044;2023-03-01T10:20:10;25.30;;;14.35;;
69083;SDS011;56185;48.526;9.044;2023-03-01T10:22:38;21.48;;;13.35;;
69083;SDS011;56185;48.526;9.044;2023-03-01T10:25:03;23.75;;;13.27;;
69083;SDS011;56185;48.526;9.044;2023-03-01T10:27:42;25.13;;;13.73;;
69083;SDS011;56185;48.526;9.044;2023-03-01T10:30:19;23.05;;;13.48;;
69083;SDS011;56185;48.526;9.044;2023-03-01T10:32:48;22.15;;;13.35;;
69083;SDS011;56185;48.526;9.044;2023-03-01T10:35:16;26.70;;;14.10;;
69083;SDS011;56185;48.526;9.044;2023-03-01T10:40:23;22.42;;;13.38;;
69083;SDS011;56185;48.526;9.044;2023-03-01T10:42:48;28.02;;;14.68;;
69083;SDS011;56185;48.526;9.044;2023-03-01T10:45:16;20.77;;;13.60;;
69083;SDS011;56185;48.526;9.044;2023-03-01T10:48:13;24.52;;;13.32;;
69083;SDS011;56185;48.526;9.044;2023-03-01T10:50:42;24.38;;;13.85;;
69083;SDS011;56185;48.526;9.044;2023-03-01T10:53:27;22.52;;;13.57;;
69083;SDS011;56185;48.526;9.044;2023-03-01T10:55:57;21.52;;;13.00;;
69083;SDS011;56185;48.526;9.044;2023-03-01T10:58:23;23.00;;;14.13;;
69083;SDS011;56185;48.526;9.044;2023-03-01T11:00:50;20.60;;;12.65;;
69083;SDS011;56185;48.526;9.044;2023-03-01T11:03:37;23.40;;;13.10;;
69083;SDS011;56185;48.526;9.044;2023-03-01T11:06:05;22.08;;;13.13;;
69083;SDS011;56185;48.526;9.044;2023-03-01T11:11:04;22.23;;;13.10;;
69083;SDS011;56185;48.526;9.044;2023-03-01T11:13:31;24.45;;;14.18;;
69083;SDS011;56185;48.526;9.044;2023-03-01T11:16:04;20.33;;;13.23;;
69083;SDS011;56185;48.526;9.044;2023-03-01T11:18:32;20.58;;;12.65;;
69083;SDS011;56185;48.526;9.044;2023-03-01T11:20:58;23.80;;;13.85;;
69083;SDS011;56185;48.526;9.044;2023-03-01T11:23:25;25.95;;;13.65;;
69083;SDS011;56185;48.526;9.044;2023-03-01T11:26:00;21.65;;;13.07;;
69083;SDS011;56185;48.526;9.044;2023-03-01T11:28:30;21.02;;;13.40;;
69083;SDS011;56185;48.526;9.044;2023-03-01T11:36:34;19.55;;;12.15;;
69083;SDS011;56185;48.526;9.044;2023-03-01T11:39:12;20.38;;;13.15;;
69083;SDS011;56185;48.526;9.044;2023-03-01T11:41:46;18.77;;;11.95;;
69083;SDS011;56185;48.526;9.044;2023-03-01T11:44:19;20.00;;;12.73;;
69083;SDS011;56185;48.526;9.044;2023-03-01T11:56:03;19.95;;;11.93;;
69083;SDS011;56185;48.526;9.044;2023-03-01T11:58:33;21.42;;;11.90;;
69083;SDS011;56185;48.526;9.044;2023-03-01T12:04:22;21.20;;;12.30;;
69083;SDS011;56185;48.526;9.044;2023-03-01T12:07:02;18.67;;;11.27;;
69083;SDS011;56185;48.526;9.044;2023-03-01T12:12:31;21.05;;;11.80;;
69083;SDS011;56185;48.526;9.044;2023-03-01T12:22:31;17.30;;;11.18;;
69083;SDS011;56185;48.526;9.044;2023-03-01T12:28:11;20.55;;;11.77;;
69083;SDS011;56185;48.526;9.044;2023-03-01T12:33:59;18.35;;;11.00;;
69083;SDS011;56185;48.526;9.044;2023-03-01T12:48:31;15.45;;;10.75;;
69083;SDS011;56185;48.526;9.044;2023-03-01T12:51:22;16.73;;;10.88;;
69083;SDS011;56185;48.526;9.044;2023-03-01T12:53:50;17.70;;;10.55;;
69083;SDS011;56185;48.526;9.044;2023-03-01T12:56:19;18.67;;;11.32;;
69083;SDS011;56185;48.526;9.044;2023-03-01T13:04:23;16.63;;;10.43;;
69083;SDS011;56185;48.526;9.044;2023-03-01T13:09:34;17.30;;;10.85;;
69083;SDS011;56185;48.526;9.044;2023-03-01T13:12:41;19.63;;;10.48;;
69083;SDS011;56185;48.526;9.044;2023-03-01T13:18:02;19.05;;;10.38;;
69083;SDS011;56185;48.526;9.044;2023-03-01T13:23:02;20.88;;;10.82;;
69083;SDS011;56185;48.526;9.044;2023-03-01T13:25:30;16.15;;;10.50;;
69083;SDS011;56185;48.526;9.044;2023-03-01T13:30:56;17.00;;;10.88;;
69083;SDS011;56185;48.526;9.044;2023-03-01T13:35:53;16.45;;;10.82;;
69083;SDS011;56185;48.526;9.044;2023-03-01T13:41:13;15.48;;;10.88;;
69083;SDS011;56185;48.526;9.044;2023-03-01T13:43:41;18.45;;;10.95;;
69083;SDS011;56185;48.526;9.044;2023-03-01T13:46:09;18.35;;;11.32;;
69083;SDS011;56185;48.526;9.044;2023-03-01T13:48:37;16.40;;;10.65;;
69083;SDS011;56185;48.526;9.044;2023-03-01T13:51:04;18.35;;;11.40;;
69083;SDS011;56185;48.526;9.044;2023-03-01T13:53:43;20.60;;;11.38;;
69083;SDS011;56185;48.526;9.044;2023-03-01T13:56:18;18.15;;;11.25;;
69083;SDS011;56185;48.526;9.044;2023-03-01T13:58:52;19.02;;;11.57;;
69083;SDS011;56185;48.526;9.044;2023-03-01T14:01:28;17.98;;;11.43;;
69083;SDS011;56185;48.526;9.044;2023-03-01T14:03:55;16.85;;;10.38;;
69083;SDS011;56185;48.526;9.044;2023-03-01T14:06:21;15.95;;;10.55;;
69083;SDS011;56185;48.526;9.044;2023-03-01T14:08:49;17.25;;;10.70;;
69083;SDS011;56185;48.526;9.044;2023-03-01T14:13:54;17.08;;;11.35;;
69083;SDS011;56185;48.526;9.044;2023-03-01T14:19:39;17.10;;;11.35;;
69083;SDS011;56185;48.526;9.044;2023-03-01T14:22:11;17.80;;;11.23;;
69083;SDS011;56185;48.526;9.044;2023-03-01T14:24:54;17.85;;;11.70;;
69083;SDS011;56185;48.526;9.044;2023-03-01T14:27:21;19.77;;;11.27;;
69083;SDS011;56185;48.526;9.044;2023-03-01T14:29:58;18.10;;;12.15;;
69083;SDS011;56185;48.526;9.044;2023-03-01T14:32:27;17.50;;;11.32;;
69083;SDS011;56185;48.526;9.044;2023-03-01T14:34:54;18.77;;;11.90;;
69083;SDS011;56185;48.526;9.044;2023-03-01T14:37:28;19.50;;;11.63;;
69083;SDS011;56185;48.526;9.044;2023-03-01T14:39:58;18.23;;;10.45;;
69083;SDS011;56185;48.526;9.044;2023-03-01T14:42:30;19.70;;;12.02;;
69083;SDS011;56185;48.526;9.044;2023-03-01T14:45:00;19.67;;;12.27;;
69083;SDS011;56185;48.526;9.044;2023-03-01T14:47:34;16.88;;;10.85;;
69083;SDS011;56185;48.526;9.044;2023-03-01T14:50:10;19.75;;;11.65;;
69083;SDS011;56185;48.526;9.044;2023-03-01T14:52:50;17.25;;;11.05;;
69083;SDS011;56185;48.526;9.044;2023-03-01T14:55:23;15.68;;;10.63;;
69083;SDS011;56185;48.526;9.044;2023-03-01T14:57:51;17.42;;;11.07;;
69083;SDS011;56185;48.526;9.044;2023-03-01T15:00:18;17.30;;;10.68;;
69083;SDS011;56185;48.526;9.044;2023-03-01T15:02:47;19.17;;;11.18;;
69083;SDS011;56185;48.526;9.044;2023-03-01T15:05:15;18.80;;;10.63;;
69083;SDS011;56185;48.526;9.044;2023-03-01T15:07:43;20.23;;;11.60;;
69083;SDS011;56185;48.526;9.044;2023-03-01T15:10:16;15.68;;;10.60;;
69083;SDS011;56185;48.526;9.044;2023-03-01T15:12:44;18.15;;;10.75;;
69083;SDS011;56185;48.526;9.044;2023-03-01T15:17:53;17.88;;;10.93;;
69083;SDS011;56185;48.526;9.044;2023-03-01T15:20:20;15.82;;;9.82;;
69083;SDS011;56185;48.526;9.044;2023-03-01T15:22:47;18.77;;;10.45;;
69083;SDS011;56185;48.526;9.044;2023-03-01T15:25:16;16.02;;;10.27;;
69083;SDS011;56185;48.526;9.044;2023-03-01T15:27:46;14.48;;;9.70;;
69083;SDS011;56185;48.526;9.044;2023-03-01T15:30:17;16.77;;;10.73;;
69083;SDS011;56185;48.526;9.044;2023-03-01T15:35:55;16.95;;;10.70;;
69083;SDS011;56185;48.526;9.044;2023-03-01T15:38:32;16.58;;;10.52;;
69083;SDS011;56185;48.526;9.044;2023-03-01T15:40:58;18.27;;;10.52;;
69083;SDS011;56185;48.526;9.044;2023-03-01T15:43:43;15.75;;;9.80;;
69083;SDS011;56185;48.526;9.044;2023-03-01T15:46:15;16.70;;;10.70;;
69083;SDS011;56185;48.526;9.044;2023-03-01T15:48:44;16.70;;;10.77;;
69083;SDS011;56185;48.526;9.044;2023-03-01T15:51:11;18.52;;;11.23;;
69083;SDS011;56185;48.526;9.044;2023-03-01T15:53:38;17.67;;;10.60;;
69083;SDS011;56185;48.526;9.044;2023-03-01T15:56:03;17.42;;;11.32;;
69083;SDS011;56185;48.526;9.044;2023-03-01T15:58:29;16.98;;;10.85;;
69083;SDS011;56185;48.526;9.044;2023-03-01T16:00:54;15.87;;;10.43;;
69083;SDS011;56185;48.526;9.044;2023-03-01T16:03:19;21.42;;;11.48;;
69083;SDS011;56185;48.526;9.044;2023-03-01T16:05:45;17.10;;;10.45;;
69083;SDS011;56185;48.526;9.044;2023-03-01T16:08:10;18.00;;;11.15;;
69083;SDS011;56185;48.526;9.044;2023-03-01T16:10:35;18.23;;;11.40;;
69083;SDS011;56185;48.526;9.044;2023-03-01T16:13:01;16.65;;;10.35;;
69083;SDS011;56185;48.526;9.044;2023-03-01T16:15:30;17.80;;;10.77;;